createdAt,value
2023-02-14T00:00:39.281Z,103525.52
2023-02-14T00:03:08.605Z,103519.91
2023-02-14T00:05:38.074Z,103513.84
2023-02-14T00:08:07.405Z,103519.46
2023-02-14T00:10:36.983Z,103513.41
2023-02-14T00:13:06.674Z,103516.00
2023-02-14T00:15:35.915Z,103516.44
2023-02-14T00:18:06.499Z,103519.91
2023-02-14T00:20:37.010Z,103516.03
2023-02-14T00:23:06.341Z,103518.17
2023-02-14T00:25:36.303Z,103512.53
2023-02-14T00:28:05.650Z,103511.28
2023-02-14T00:30:36.111Z,103507.41
2023-02-14T00:33:06.965Z,103505.21
2023-02-14T00:35:39.093Z,103501.36
2023-02-14T00:38:08.649Z,103500.94
2023-02-14T00:40:39.800Z,103500.09
2023-02-14T00:43:09.032Z,103498.39
2023-02-14T00:45:38.365Z,103495.80
2023-02-14T00:48:07.914Z,103501.41
2023-02-14T00:50:37.138Z,103491.03
2023-02-14T00:53:07.133Z,103490.17
2023-02-14T00:55:36.377Z,103487.16
2023-02-14T00:58:05.913Z,103487.59
2023-02-14T01:00:35.203Z,103484.58
2023-02-14T01:03:04.671Z,103482.81
2023-02-14T01:05:33.899Z,103487.16
2023-02-14T01:08:05.213Z,103485.41
2023-02-14T01:10:35.015Z,103484.51
2023-02-14T01:13:04.452Z,103482.34
2023-02-14T01:15:38.554Z,103481.08
2023-02-14T01:18:07.267Z,103479.38
2023-02-14T01:20:36.535Z,103477.63
2023-02-14T01:23:06.459Z,103480.69
2023-02-14T01:25:38.004Z,103480.23
2023-02-14T01:28:08.048Z,103479.80
2023-02-14T01:30:37.415Z,103479.81
2023-02-14T01:33:06.797Z,103478.52
2023-02-14T01:35:40.484Z,103477.63
2023-02-14T01:38:09.727Z,103472.47
2023-02-14T01:40:43.967Z,103471.17
2023-02-14T01:43:17.464Z,103475.02
2023-02-14T01:45:47.133Z,103481.52
2023-02-14T01:48:17.793Z,103478.91
2023-02-14T01:50:47.840Z,103484.11
2023-02-14T01:53:20.267Z,103484.57
2023-02-14T01:55:50.345Z,103490.59
2023-02-14T01:58:25.069Z,103488.48
2023-02-14T02:00:59.317Z,103484.15
2023-02-14T02:03:38.100Z,103484.56
2023-02-14T02:06:10.508Z,103482.00
2023-02-14T02:08:39.889Z,103479.41
2023-02-14T02:11:09.044Z,103485.88
2023-02-14T02:13:38.506Z,103479.39
2023-02-14T02:16:23.158Z,103466.89
2023-02-14T02:19:05.917Z,103481.98
2023-02-14T02:22:03.455Z,103476.38
2023-02-14T02:24:58.741Z,103482.88
2023-02-14T02:27:34.234Z,103477.24
2023-02-14T02:30:24.902Z,103468.59
2023-02-14T02:33:15.466Z,103465.58
2023-02-14T02:36:06.329Z,103471.20
2023-02-14T02:38:57.217Z,103475.09
2023-02-14T02:41:47.808Z,103473.34
2023-02-14T02:44:26.919Z,103462.98
2023-02-14T02:47:05.568Z,103459.96
2023-02-14T02:49:55.896Z,103462.12
2023-02-14T02:52:58.310Z,103458.22
2023-02-14T02:55:57.925Z,103460.83
2023-02-14T02:58:31.098Z,103458.67
2023-02-14T03:01:02.041Z,103460.39
2023-02-14T03:03:52.748Z,103459.09
2023-02-14T03:06:23.059Z,103454.36
2023-02-14T03:08:52.523Z,103456.08
2023-02-14T03:11:22.219Z,103456.08
2023-02-14T03:14:00.631Z,103454.78
2023-02-14T03:16:33.366Z,103452.61
2023-02-14T03:19:14.970Z,103450.90
2023-02-14T03:21:59.410Z,103448.30
2023-02-14T03:24:47.503Z,103450.90
2023-02-14T03:27:23.120Z,103447.43
2023-02-14T03:29:55.735Z,103448.73
2023-02-14T03:32:40.645Z,103445.27
2023-02-14T03:35:13.393Z,103450.45
2023-02-14T03:38:09.420Z,103440.50
2023-02-14T03:40:49.687Z,103441.38
2023-02-14T03:43:22.334Z,103447.85
2023-02-14T03:45:55.145Z,103443.54
2023-02-14T03:48:26.034Z,103444.38
2023-02-14T03:50:55.729Z,103445.26
2023-02-14T03:53:27.349Z,103441.38
2023-02-14T03:56:18.491Z,103446.55
2023-02-14T03:58:50.759Z,103448.30
2023-02-14T04:01:26.018Z,103447.42
2023-02-14T04:03:56.903Z,103447.84
2023-02-14T04:06:26.273Z,103443.12
2023-02-14T04:08:55.725Z,103450.02
2023-02-14T04:11:25.049Z,103449.57
2023-02-14T04:13:54.688Z,103448.72
2023-02-14T04:16:24.011Z,103443.08
2023-02-14T04:19:11.595Z,103454.74
2023-02-14T04:21:41.294Z,103455.20
2023-02-14T04:24:10.810Z,103454.73
2023-02-14T04:26:41.738Z,103451.31
2023-02-14T04:29:11.041Z,103455.16
2023-02-14T04:31:40.578Z,103449.54
2023-02-14T04:34:09.924Z,103450.84
2023-02-14T04:36:39.532Z,103450.83
2023-02-14T04:39:08.745Z,103448.66
2023-02-14T04:41:38.337Z,103443.94
2023-02-14T04:44:07.594Z,103446.08
2023-02-14T04:46:37.180Z,103439.17
2023-02-14T04:49:06.464Z,103435.70
2023-02-14T04:51:35.736Z,103437.88
2023-02-14T04:54:05.159Z,103439.60
2023-02-14T04:56:34.406Z,103442.18
2023-02-14T04:59:03.765Z,103440.89
2023-02-14T05:01:33.056Z,103437.45
2023-02-14T05:04:02.483Z,103441.76
2023-02-14T05:06:32.914Z,103437.41
2023-02-14T05:09:02.517Z,103433.57
2023-02-14T05:11:32.403Z,103430.98
2023-02-14T05:14:01.713Z,103431.41
2023-02-14T05:16:31.490Z,103429.69
2023-02-14T05:19:01.165Z,103433.17
2023-02-14T05:21:32.085Z,103431.42
2023-02-14T05:24:02.066Z,103432.30
2023-02-14T05:26:31.841Z,103434.01
2023-02-14T05:29:01.093Z,103429.70
2023-02-14T05:31:30.778Z,103430.58
2023-02-14T05:34:00.118Z,103435.34
2023-02-14T05:36:29.382Z,103440.09
2023-02-14T05:38:58.646Z,103438.34
2023-02-14T05:41:28.058Z,103444.84
2023-02-14T05:43:57.363Z,103441.79
2023-02-14T05:46:26.729Z,103437.90
2023-02-14T05:48:55.965Z,103436.64
2023-02-14T05:51:25.509Z,103438.35
2023-02-14T05:53:54.775Z,103442.66
2023-02-14T05:56:24.135Z,103438.35
2023-02-14T05:58:53.459Z,103441.82
2023-02-14T06:01:23.035Z,103443.55
2023-02-14T06:03:52.268Z,103448.73
2023-02-14T06:06:21.560Z,103440.53
2023-02-14T06:08:50.783Z,103438.35
2023-02-14T06:11:20.375Z,103445.28
2023-02-14T06:13:49.931Z,103439.23
2023-02-14T06:16:19.379Z,103441.82
2023-02-14T06:18:48.974Z,103443.54
2023-02-14T06:21:18.251Z,103442.66
2023-02-14T06:23:47.856Z,103443.55
2023-02-14T06:26:17.188Z,103445.26
2023-02-14T06:28:46.690Z,103443.95
2023-02-14T06:31:17.855Z,103439.61
2023-02-14T06:33:47.260Z,103443.94
2023-02-14T06:36:16.761Z,103443.92
2023-02-14T06:38:47.962Z,103443.04
2023-02-14T06:41:18.215Z,103440.45
2023-02-14T06:43:51.162Z,103443.46
2023-02-14T06:46:20.944Z,103440.45
2023-02-14T06:48:50.230Z,103437.88
2023-02-14T06:51:19.456Z,103440.89
2023-02-14T06:53:48.724Z,103433.56
2023-02-14T06:56:17.968Z,103434.41
2023-02-14T06:58:47.237Z,103441.34
2023-02-14T07:01:16.868Z,103435.72
2023-02-14T07:03:46.235Z,103433.17
2023-02-14T07:06:15.714Z,103439.20
2023-02-14T07:08:45.622Z,103440.94
2023-02-14T07:11:15.060Z,103443.13
2023-02-14T07:13:44.428Z,103442.67
2023-02-14T07:16:13.731Z,103440.95
2023-02-14T07:18:43.018Z,103436.19
2023-02-14T07:21:12.421Z,103437.06
2023-02-14T07:23:54.993Z,103441.38
2023-02-14T07:26:23.799Z,103443.95
2023-02-14T07:28:52.957Z,103450.47
2023-02-14T07:31:23.859Z,103446.55
2023-02-14T07:33:53.269Z,103445.64
2023-02-14T07:36:22.523Z,103443.90
2023-02-14T07:38:51.760Z,103446.47
2023-02-14T07:41:21.043Z,103443.87
2023-02-14T07:43:50.783Z,103443.37
2023-02-14T07:46:20.119Z,103438.98
2023-02-14T07:48:50.645Z,103440.27
2023-02-14T07:51:20.001Z,103438.50
2023-02-14T07:53:49.294Z,103440.20
2023-02-14T07:56:18.577Z,103445.78
2023-02-14T07:58:49.634Z,103444.85
2023-02-14T08:01:19.448Z,103446.06
2023-02-14T08:03:52.735Z,103450.77
2023-02-14T08:06:22.241Z,103450.70
2023-02-14T08:08:51.602Z,103451.46
2023-02-14T08:11:38.953Z,103451.84
2023-02-14T08:14:08.269Z,103452.90
2023-02-14T08:16:38.414Z,103451.78
2023-02-14T08:19:07.932Z,103445.95
2023-02-14T08:21:37.256Z,103455.37
2023-02-14T08:24:06.908Z,103454.14
2023-02-14T08:26:36.161Z,103454.73
2023-02-14T08:29:05.676Z,103451.23
2023-02-14T08:31:36.483Z,103456.57
2023-02-14T08:34:07.189Z,103456.99
2023-02-14T08:36:36.525Z,103454.31
2023-02-14T08:39:06.584Z,103449.77
2023-02-14T08:41:36.411Z,103447.96
2023-02-14T08:44:05.921Z,103449.72
2023-02-14T08:46:35.270Z,103451.16
2023-02-14T08:49:04.951Z,103450.84
2023-02-14T08:51:34.212Z,103445.78
2023-02-14T08:54:03.693Z,103451.19
2023-02-14T08:56:33.352Z,103450.96
2023-02-14T08:59:02.609Z,103443.47
2023-02-14T09:01:31.978Z,103441.75
2023-02-14T09:04:02.211Z,103446.71
2023-02-14T09:06:31.859Z,103447.31
2023-02-14T09:09:02.549Z,103434.49
2023-02-14T09:11:32.536Z,103440.20
2023-02-14T09:14:02.088Z,103440.11
2023-02-14T09:16:31.786Z,103434.20
2023-02-14T09:19:01.376Z,103436.36
2023-02-14T09:21:30.684Z,103440.60
2023-02-14T09:23:59.917Z,103434.05
2023-02-14T09:26:29.380Z,103435.47
2023-02-14T09:28:59.212Z,103435.55
2023-02-14T09:31:28.557Z,103432.18
2023-02-14T09:34:16.354Z,103430.64
2023-02-14T09:36:45.625Z,103431.72
2023-02-14T09:39:15.179Z,103436.79
2023-02-14T09:41:47.674Z,103428.00
2023-02-14T09:44:27.003Z,103424.53
2023-02-14T09:46:58.164Z,103428.30
2023-02-14T09:49:36.478Z,103420.48
2023-02-14T09:52:08.178Z,103424.74
2023-02-14T09:54:38.340Z,103424.20
2023-02-14T09:57:33.805Z,103419.30
2023-02-14T10:00:21.078Z,103422.33
2023-02-14T10:03:08.357Z,103423.67
2023-02-14T10:05:46.643Z,103423.89
2023-02-14T10:08:39.958Z,103414.73
2023-02-14T10:11:11.813Z,103418.56
2023-02-14T10:13:58.827Z,103422.56
2023-02-14T10:16:33.481Z,103419.63
2023-02-14T10:19:05.261Z,103414.10
2023-02-14T10:21:47.919Z,103413.58
2023-02-14T10:24:26.007Z,103419.76
2023-02-14T10:26:58.144Z,103413.62
2023-02-14T10:29:27.729Z,103417.20
2023-02-14T10:32:02.458Z,103410.52
2023-02-14T10:34:43.643Z,103417.09
2023-02-14T10:37:28.134Z,103401.89
2023-02-14T10:40:09.736Z,103405.67
2023-02-14T10:43:02.569Z,103405.67
2023-02-14T10:45:32.803Z,103404.84
2023-02-14T10:48:17.160Z,103408.05
2023-02-14T10:51:17.907Z,103408.91
2023-02-14T10:54:07.960Z,103401.94
2023-02-14T10:56:43.650Z,103405.87
2023-02-14T10:59:19.334Z,103404.28
2023-02-14T11:01:50.821Z,103399.41
2023-02-14T11:04:22.450Z,103397.29
2023-02-14T11:06:51.716Z,103397.62
2023-02-14T11:09:21.587Z,103396.50
2023-02-14T11:11:52.959Z,103393.08
2023-02-14T11:14:26.261Z,103386.83
2023-02-14T11:16:56.740Z,103391.39
2023-02-14T11:19:28.859Z,103388.45
2023-02-14T11:21:59.834Z,103380.57
2023-02-14T11:24:35.079Z,103380.50
2023-02-14T11:27:13.060Z,103381.34
2023-02-14T11:29:49.191Z,103379.66
2023-02-14T11:32:27.117Z,103377.00
2023-02-14T11:35:05.177Z,103375.55
2023-02-14T11:37:45.536Z,103370.20
2023-02-14T11:40:32.547Z,103364.13
2023-02-14T11:43:14.001Z,103360.02
2023-02-14T11:45:38.633Z,103358.06
2023-02-14T11:48:31.461Z,103349.95
2023-02-14T11:51:17.306Z,103357.70
2023-02-14T11:53:55.897Z,103338.19
2023-02-14T11:56:25.776Z,103330.41
2023-02-14T11:59:02.627Z,103328.98
2023-02-14T12:01:33.886Z,103321.42
2023-02-14T12:04:06.139Z,103312.41
2023-02-14T12:06:35.969Z,103310.58
2023-02-14T12:09:25.987Z,103304.47
2023-02-14T12:11:59.796Z,103306.66
2023-02-14T12:14:34.476Z,103307.77
2023-02-14T12:17:28.172Z,103300.94
2023-02-14T12:20:15.933Z,103304.95
2023-02-14T12:22:53.565Z,103297.57
2023-02-14T12:25:34.833Z,103290.53
2023-02-14T12:28:10.329Z,103285.82
2023-02-14T12:30:40.237Z,103274.81
2023-02-14T12:33:24.765Z,103277.69
2023-02-14T12:36:09.068Z,103270.31
2023-02-14T12:38:56.840Z,103275.41
2023-02-14T12:41:47.546Z,103268.69
2023-02-14T12:44:26.026Z,103261.13
2023-02-14T12:47:08.262Z,103261.13
2023-02-14T12:49:56.045Z,103259.33
2023-02-14T12:52:34.319Z,103251.05
2023-02-14T12:55:28.604Z,103249.38
2023-02-14T12:58:03.538Z,103240.69
2023-02-14T13:00:51.304Z,103231.30
2023-02-14T13:03:30.346Z,103227.09
2023-02-14T13:06:25.025Z,103235.59
2023-02-14T13:09:15.456Z,103225.78
2023-02-14T13:11:59.766Z,103227.91
2023-02-14T13:14:50.124Z,103228.42
2023-02-14T13:17:40.546Z,103223.06
2023-02-14T13:20:41.172Z,103214.78
2023-02-14T13:23:16.796Z,103216.26
2023-02-14T13:26:04.150Z,103213.56
2023-02-14T13:28:34.311Z,103212.05
2023-02-14T13:31:04.785Z,103212.11
2023-02-14T13:33:37.905Z,103210.05
2023-02-14T13:36:12.621Z,103210.36
2023-02-14T13:38:47.563Z,103209.59
2023-02-14T13:41:17.539Z,103206.24
2023-02-14T13:43:57.754Z,103197.37
2023-02-14T13:46:39.201Z,103200.46
2023-02-14T13:49:27.074Z,103198.38
2023-02-14T13:52:05.043Z,103196.96
2023-02-14T13:54:46.744Z,103188.34
2023-02-14T13:57:36.798Z,103188.03
2023-02-14T14:00:21.581Z,103188.22
2023-02-14T14:02:53.573Z,103188.24
2023-02-14T14:05:42.869Z,103179.17
2023-02-14T14:08:25.432Z,103173.97
2023-02-14T14:10:57.120Z,103184.68
2023-02-14T14:13:46.723Z,103179.20
2023-02-14T14:16:30.999Z,103175.91
2023-02-14T14:19:06.953Z,103168.30
2023-02-14T14:21:39.346Z,103166.02
2023-02-14T14:24:26.063Z,103163.96
2023-02-14T14:27:24.650Z,103162.78
2023-02-14T14:29:59.831Z,103163.14
2023-02-14T14:32:35.379Z,103153.88
2023-02-14T14:35:10.672Z,103161.87
2023-02-14T14:37:49.064Z,103165.69
2023-02-14T14:40:31.462Z,103162.83
2023-02-14T14:43:18.017Z,103168.89
2023-02-14T14:45:48.173Z,103166.30
2023-02-14T14:48:35.797Z,103159.54
2023-02-14T14:51:06.683Z,103159.27
2023-02-14T14:53:45.378Z,103157.30
2023-02-14T14:56:20.554Z,103153.42
2023-02-14T14:58:50.134Z,103159.30
2023-02-14T15:01:39.935Z,103162.91
2023-02-14T15:04:28.530Z,103162.16
2023-02-14T15:06:59.586Z,103152.03
2023-02-14T15:09:33.686Z,103161.77
2023-02-14T15:12:21.807Z,103152.42
2023-02-14T15:14:53.835Z,103155.53
2023-02-14T15:17:26.048Z,103157.61
2023-02-14T15:19:57.397Z,103155.51
2023-02-14T15:22:33.820Z,103157.39
2023-02-14T15:27:52.284Z,103146.00
2023-02-14T15:30:26.291Z,103142.06
2023-02-14T15:32:56.184Z,103133.82
2023-02-14T15:35:28.682Z,103136.92
2023-02-14T15:37:58.769Z,103135.64
2023-02-14T15:40:34.218Z,103131.95
2023-02-14T15:43:29.053Z,103130.17
2023-02-14T15:46:03.079Z,103132.28
2023-02-14T15:48:34.141Z,103138.03
2023-02-14T15:51:06.094Z,103135.64
2023-02-14T15:53:41.535Z,103128.42
2023-02-14T15:56:24.318Z,103129.47
2023-02-14T15:58:54.539Z,103134.83
2023-02-14T16:01:24.257Z,103130.61
2023-02-14T16:03:57.411Z,103131.29
2023-02-14T16:06:42.754Z,103127.21
2023-02-14T16:09:27.476Z,103131.23
2023-02-14T16:11:56.962Z,103135.33
2023-02-14T16:14:39.768Z,103140.53
2023-02-14T16:17:14.085Z,103138.49
2023-02-14T16:19:45.651Z,103136.58
2023-02-14T16:22:26.247Z,103136.59
2023-02-14T16:24:55.530Z,103142.18
2023-02-14T16:27:24.875Z,103138.10
2023-02-14T16:29:54.676Z,103133.00
2023-02-14T16:32:25.773Z,103132.76
2023-02-14T16:34:56.153Z,103132.65
2023-02-14T16:37:31.736Z,103133.88
2023-02-14T16:40:02.221Z,103137.70
2023-02-14T16:42:32.710Z,103133.39
2023-02-14T16:45:02.396Z,103123.86
2023-02-14T16:47:31.961Z,103125.41
2023-02-14T16:50:01.532Z,103131.52
2023-02-14T16:52:31.105Z,103126.22
2023-02-14T16:55:00.412Z,103120.06
2023-02-14T16:57:33.075Z,103126.78
2023-02-14T17:00:02.520Z,103129.22
2023-02-14T17:02:32.177Z,103128.26
2023-02-14T17:05:01.679Z,103130.05
2023-02-14T17:07:32.557Z,103129.27
2023-02-14T17:10:18.427Z,103132.60
2023-02-14T17:12:48.832Z,103132.09
2023-02-14T17:15:21.667Z,103134.42
2023-02-14T17:17:55.932Z,103136.42
2023-02-14T17:20:25.608Z,103134.87
2023-02-14T17:23:01.485Z,103141.80
2023-02-14T17:25:31.856Z,103137.48
2023-02-14T17:28:02.202Z,103137.63
2023-02-14T17:30:31.886Z,103143.56
2023-02-14T17:33:01.532Z,103141.14
2023-02-14T17:35:31.109Z,103148.84
2023-02-14T17:38:00.608Z,103150.06
2023-02-14T17:40:30.917Z,103142.50
2023-02-14T17:43:01.757Z,103144.49
2023-02-14T17:45:31.044Z,103143.02
2023-02-14T17:48:01.684Z,103141.36
2023-02-14T17:50:31.302Z,103135.55
2023-02-14T17:53:00.744Z,103136.82
2023-02-14T17:55:29.948Z,103136.20
2023-02-14T17:57:59.412Z,103132.88
2023-02-14T18:00:28.933Z,103138.46
2023-02-14T18:02:58.723Z,103133.53
2023-02-14T18:05:28.129Z,103130.52
2023-02-14T18:07:58.244Z,103124.96
2023-02-14T18:10:27.757Z,103127.84
2023-02-14T18:12:57.163Z,103121.47
2023-02-14T18:15:27.799Z,103125.22
2023-02-14T18:17:57.262Z,103117.13
2023-02-14T18:20:26.960Z,103111.72
2023-02-14T18:22:56.538Z,103117.78
2023-02-14T18:25:26.066Z,103119.69
2023-02-14T18:27:55.544Z,103120.79
2023-02-14T18:30:25.133Z,103114.99
2023-02-14T18:32:54.881Z,103114.75
2023-02-14T18:35:25.249Z,103123.95
2023-02-14T18:37:54.522Z,103115.23
2023-02-14T18:40:23.786Z,103110.63
2023-02-14T18:42:53.146Z,103114.95
2023-02-14T18:45:22.552Z,103114.91
2023-02-14T18:47:52.263Z,103110.59
2023-02-14T18:50:21.652Z,103112.45
2023-02-14T18:52:50.955Z,103105.70
2023-02-14T18:55:20.186Z,103107.56
2023-02-14T18:57:49.587Z,103111.72
2023-02-14T19:00:19.390Z,103111.80
2023-02-14T19:02:49.385Z,103111.43
2023-02-14T19:05:19.351Z,103105.98
2023-02-14T19:07:48.852Z,103097.89
2023-02-14T19:10:18.489Z,103104.75
2023-02-14T19:12:47.809Z,103100.20
2023-02-14T19:15:19.137Z,103097.87
2023-02-14T19:17:48.770Z,103098.19
2023-02-14T19:20:18.119Z,103094.98
2023-02-14T19:22:48.400Z,103093.11
2023-02-14T19:25:17.973Z,103089.44
2023-02-14T19:27:48.110Z,103091.88
2023-02-14T19:30:18.088Z,103088.59
2023-02-14T19:32:48.035Z,103085.79
2023-02-14T19:35:17.443Z,103086.98
2023-02-14T19:37:47.717Z,103089.20
2023-02-14T19:40:17.286Z,103095.95
2023-02-14T19:42:46.709Z,103091.36
2023-02-14T19:45:17.010Z,103084.16
2023-02-14T19:47:47.705Z,103091.23
2023-02-14T19:50:19.448Z,103096.57
2023-02-14T19:52:50.123Z,103093.88
2023-02-14T19:55:22.339Z,103094.55
2023-02-14T19:57:51.863Z,103087.37
2023-02-14T20:00:21.436Z,103084.94
2023-02-14T20:02:51.221Z,103078.91
2023-02-14T20:05:21.046Z,103075.94
2023-02-14T20:07:55.173Z,103067.45
2023-02-14T20:10:24.601Z,103069.21
2023-02-14T20:12:57.488Z,103066.66
2023-02-14T20:15:29.232Z,103058.45
2023-02-14T20:17:58.700Z,103059.36
2023-02-14T20:20:28.305Z,103059.04
2023-02-14T20:22:57.605Z,103050.28
2023-02-14T20:25:27.100Z,103062.56
2023-02-14T20:27:56.424Z,103056.52
2023-02-14T20:30:26.030Z,103057.49
2023-02-14T20:32:55.325Z,103050.47
2023-02-14T20:35:24.792Z,103056.34
2023-02-14T20:37:55.036Z,103050.78
2023-02-14T20:40:24.492Z,103047.59
2023-02-14T20:42:54.002Z,103038.75
2023-02-14T20:45:26.340Z,103032.76
2023-02-14T20:47:55.673Z,103031.56
2023-02-14T20:50:24.994Z,103033.71
2023-02-14T20:52:55.263Z,103037.91
2023-02-14T20:55:26.571Z,103023.34
2023-02-14T20:57:58.705Z,103029.96
2023-02-14T21:00:28.281Z,103019.55
2023-02-14T21:02:58.786Z,103023.89
2023-02-14T21:05:28.960Z,103022.59
2023-02-14T21:07:58.506Z,103023.45
2023-02-14T21:10:28.469Z,103021.36
2023-02-14T21:12:58.394Z,103014.48
2023-02-14T21:15:28.005Z,103009.60
2023-02-14T21:17:57.788Z,103008.66
2023-02-14T21:20:27.216Z,103005.97
2023-02-14T21:22:57.670Z,103012.09
2023-02-14T21:25:27.131Z,103016.56
2023-02-14T21:27:56.393Z,103012.36
2023-02-14T21:30:27.926Z,103011.59
2023-02-14T21:32:57.698Z,103004.78
2023-02-14T21:35:27.184Z,103009.47
2023-02-14T21:37:56.493Z,103008.56
2023-02-14T21:40:25.817Z,103002.61
2023-02-14T21:42:55.312Z,102999.86
2023-02-14T21:45:42.280Z,102998.45
2023-02-14T21:48:29.895Z,103001.64
2023-02-14T21:51:00.574Z,102993.20
2023-02-14T21:53:32.682Z,102996.31
2023-02-14T21:56:13.330Z,102994.35
2023-02-14T21:58:53.371Z,102994.76
2023-02-14T22:01:27.593Z,102994.94
2023-02-14T22:03:56.728Z,102990.45
2023-02-14T22:06:29.248Z,102989.20
2023-02-14T22:09:01.774Z,102984.00
2023-02-14T22:11:38.937Z,102989.67
2023-02-14T22:14:14.449Z,102986.58
2023-02-14T22:16:44.354Z,102987.95
2023-02-14T22:19:16.816Z,102988.94
2023-02-14T22:22:06.813Z,102985.63
2023-02-14T22:24:37.347Z,102986.89
2023-02-14T22:27:09.128Z,102990.69
2023-02-14T22:29:39.264Z,102988.94
2023-02-14T22:32:10.457Z,102989.53
2023-02-14T22:34:41.943Z,102981.43
2023-02-14T22:37:12.079Z,102980.61
2023-02-14T22:39:42.000Z,102980.11
2023-02-14T22:42:11.285Z,102984.33
2023-02-14T22:44:43.116Z,102980.31
2023-02-14T22:47:19.547Z,102976.02
2023-02-14T22:49:49.146Z,102969.16
2023-02-14T22:52:18.454Z,102972.98
2023-02-14T22:54:48.699Z,102972.11
2023-02-14T22:57:20.302Z,102975.08
2023-02-14T22:59:49.346Z,102973.02
2023-02-14T23:02:18.685Z,102970.89
2023-02-14T23:04:49.495Z,102968.39
2023-02-14T23:07:18.703Z,102970.93
2023-02-14T23:09:49.562Z,102970.95
2023-02-14T23:12:36.576Z,102973.17
2023-02-14T23:15:24.247Z,102980.97
2023-02-14T23:18:11.324Z,102983.41
2023-02-14T23:20:58.697Z,102979.57
2023-02-14T23:23:32.534Z,102983.58
2023-02-14T23:26:02.296Z,102980.16
2023-02-14T23:28:31.763Z,102978.35
2023-02-14T23:31:02.776Z,102974.47
2023-02-14T23:33:31.998Z,102970.63
2023-02-14T23:36:04.137Z,102968.47
2023-02-14T23:38:33.347Z,102965.91
2023-02-14T23:41:28.336Z,102972.84
2023-02-14T23:43:57.680Z,102967.67
2023-02-14T23:46:27.262Z,102964.74
2023-02-14T23:48:56.564Z,102959.06
2023-02-14T23:51:25.877Z,102959.91
2023-02-14T23:53:55.567Z,102960.42
2023-02-14T23:56:25.204Z,102959.67
2023-02-14T23:58:54.433Z,102957.56
